Albion, Washington
Current Conditions -  °F | °C
As of 7:53 AM on Thursday 27 Nov 2014 (Local Time) from KPUW Reporting Station
Broken Clouds Broken Clouds  
Wind Chill: 48°   Ceiling: 6000
Heat Index: 48°   Visibility: 10mi
Dew Point: 38°   Wind: 3mph
Humidity: 68%   Direction: 180°S
Pressure: 29.95"   Gusts: NA
Location:  46.79°N, 117.25°W
Report Text: KPUW 271553Z AUTO 18003KT 10SM BKN060 09/03 A2995 RMK AO2 SLP150 T00890033
Loading
Personal Weather Stations






























Interactive Weather Map New forecast layout! Learn more

10-Day Weather Forecast

Advertisements
Track Severe Weather on mobile